Long Island Mac Arthur Airport
KISP : now visible

Airfield :











YOU CAN JOIN US ON...

 
LOGIN :

Register | Disclaimer

   EN    FR    IT 

 









Legend :    VFR   Marginal VFR   IFR   Intensive IFR   Very Intensive IFR
Visi :
Ceiling :
>= 8 km
>= 3000ft
5 to 8 km
1000 to 3000 ft
1500m to 5 km
500 to 1000 ft
800 to 1500m
200 to 500 ft
< 800m
< 200 ft
Symbols :   Thunderstorms  Fog  Heavy snow  Heavy precipitations  Wind > 20 kt






- Airport Elevation : 99 ft
- IATA code : ISP


KISP - Long Island Mac Arthur

CURRENT METAR :
  • 021556Z 19009KT 10SM FEW043 SCT075 BKN160 BKN220 25/23 A2992 RMK AO2 SLP131 T02500228

EXPIRED METARs :
  • 021456Z 20004KT 10SM FEW043 SCT075 BKN100 OVC200 26/24 A2991 RMK AO2 SLP126 60001 T02610239 58005
  • 020256Z 21011G21KT 10SM FEW200 BKN250 23/21 A2996 RMK AO2 SLP144 T02330211 53002
  • 021356Z 21005KT 10SM SCT043 BKN075 BKN100 OVC200 25/23 A2992 RMK AO2 TSE11 SLP129 T02500233

TAF KISP
Valid from the 02 at 14:00 until the 03 at 12:00 UTC


021416Z 0214/0312 24010KT P6SM VCSH SCT040 BKN100
FM021900 23012KT 6SM -SHRA BR SCT040 BKN060
TEMPO 0220/0224 3SM TSRA BKN040CB
FM030000 24008KT P6SM -SHRA BKN060
PROB30 0300/0303 3SM TSRA BKN040CB
FM030300 24007KT P6SM SCT060
PROB30 0303/0308 4SM -SHRA BKN060
FM030800 31005KT P6SM BKN100
KZBW FIR / North America



MET'MAP, your aeronautical weather chart ! - Copyright ORBIFLY December 2007 - Disclaimer

ORBIFLY MET'MAP TEAM :

Programming & Development : Alexandra Zaïnal
Original concept : Baudouin d'Aumeries
Technical & hardware support : Manuel Goepfert
Assistance : Marc-Olivier Méhu




SOURCES & CREDITS :

   NOAA       Earth
Advisory